Aeroporto :
LOGIN :

Iscrizione | Disclaimer

   EN    FR    IT 

 










Sommario :    VFR   VFR Marginale   IFR   IFR Intensivo   IFR Molto Intensivo
Visibilità : 
Base nubi : 
>= 8 km
>= 3000ft
5 / 8 km
1000 / 3000 ft
1500m / 5 km
500 / 1000 ft
800 / 1500m
200 / 500 ft
< 800m
< 200 ft
Simboli :   Temporali  Nebbia  Neve Forte  Precipitazioni Forti  Vento > 20 kt
SIGMETs :   Varie  Temporali  Ghiacco  Turbolenza  Onda orograficha  Ceneri Vulcaniche






- Altitudine del aeroporto : 256 ft
- Codice IATA : CFR


LFRK - Caen

ULTIMO METAR :
  • 090400Z AUTO VRB03KT 3900 BR NSC 06/05 Q1022 NOSIG

METARs OBSOLETI :
  • 090330Z AUTO 26004KT 4600 BR NSC 07/06 Q1022 NOSIG
  • 090300Z AUTO 26003KT 4700 BR NSC 07/06 Q1022 NOSIG
  • 090230Z AUTO 24002KT 5000 BR NSC 09/08 Q1022 NOSIG
  • 090200Z AUTO 26003KT 5000 BR NSC 07/05 Q1022 NOSIG
  • 090130Z AUTO 29002KT 6000 NSC 08/06 Q1022 TEMPO 3000 BR

Previsioni scadute.
Met : +33 2 31 26 68 11



MetMap, La meteo Aeronautica in un colpo d'occhio ! - Copyright ORBIFLY Dicembre 2007 - Disclaimer

ORBIFLY MET'MAP TEAM :

Programmazione e sviluppo : Alexandra Zaïnal
Concezione : Baudouin d'Aumeries
Aiuto per la programmazione : Marc-Olivier Méhu
Supporto tecnico e logistico : Manuel Goepfert
Aiuto per la traduzione : Arnaldo La Scala

Contatto : metmap@orbifly.com




FONTI E CREDITI :

   NOAA